createdAt,value
2023-10-28T00:06:31.215Z,0
2023-10-28T00:16:40.645Z,0
2023-10-28T00:26:50.090Z,0
2023-10-28T00:36:59.716Z,0
2023-10-28T00:47:09.151Z,0
2023-10-28T00:57:18.577Z,0
2023-10-28T01:07:27.973Z,0
2023-10-28T01:17:37.397Z,0
2023-10-28T01:27:46.837Z,0
2023-10-28T01:37:56.278Z,0
2023-10-28T01:48:05.740Z,0
2023-10-28T01:58:14.506Z,0
2023-10-28T02:08:21.926Z,0
2023-10-28T02:18:29.656Z,0
2023-10-28T02:28:37.387Z,0
2023-10-28T02:38:45.135Z,0
2023-10-28T02:48:52.914Z,0
2023-10-28T02:59:00.680Z,0
2023-10-28T03:09:08.467Z,0
2023-10-28T03:19:16.177Z,0
2023-10-28T03:29:23.802Z,0
2023-10-28T03:39:31.362Z,0
2023-10-28T03:49:39.011Z,0
2023-10-28T03:59:46.656Z,0
2023-10-28T04:09:54.350Z,0
2023-10-28T04:20:02.018Z,0
2023-10-28T04:30:08.914Z,0
2023-10-28T04:40:16.564Z,0
2023-10-28T04:50:24.211Z,0
2023-10-28T05:00:31.891Z,0
2023-10-28T05:10:39.580Z,0
2023-10-28T05:20:47.294Z,0
2023-10-28T05:30:55.025Z,0
2023-10-28T05:41:02.765Z,0
2023-10-28T05:51:10.507Z,0
2023-10-28T06:01:18.222Z,8
2023-10-28T06:11:25.930Z,24
2023-10-28T06:21:33.671Z,60
2023-10-28T06:31:41.356Z,120
2023-10-28T06:41:49.067Z,208
2023-10-28T06:51:56.756Z,260
2023-10-28T07:02:04.456Z,296
2023-10-28T07:12:12.165Z,336
2023-10-28T07:22:19.839Z,600
2023-10-28T07:32:27.556Z,792
2023-10-28T07:42:35.239Z,624
2023-10-28T07:52:42.814Z,824
2023-10-28T08:02:50.435Z,996
2023-10-28T08:12:57.922Z,880
2023-10-28T08:23:05.222Z,1024
2023-10-28T08:33:12.550Z,676
2023-10-28T08:43:19.847Z,1248
2023-10-28T08:53:27.193Z,1172
2023-10-28T09:03:34.552Z,1584
2023-10-28T09:13:41.903Z,2044
2023-10-28T09:23:49.207Z,1120
2023-10-28T09:33:56.456Z,976
2023-10-28T09:44:03.778Z,1444
2023-10-28T09:54:11.046Z,1336
2023-10-28T10:04:18.330Z,1752
2023-10-28T10:14:25.569Z,1760
2023-10-28T10:24:32.782Z,1720
2023-10-28T10:34:40.011Z,4612
2023-10-28T10:44:47.224Z,2432
2023-10-28T10:54:54.437Z,1300
2023-10-28T11:05:01.633Z,1624
2023-10-28T11:15:08.813Z,2396
2023-10-28T11:25:15.988Z,3648
2023-10-28T11:35:23.174Z,3224
2023-10-28T11:45:30.279Z,2444
2023-10-28T11:55:36.520Z,1776
2023-10-28T12:05:43.635Z,2352
2023-10-28T12:15:50.747Z,1872
2023-10-28T12:25:57.814Z,1408
2023-10-28T12:36:04.938Z,2272
2023-10-28T12:46:12.029Z,3820
2023-10-28T12:56:19.161Z,10444
2023-10-28T13:06:26.130Z,3596
2023-10-28T13:16:33.116Z,2252
2023-10-28T13:26:40.077Z,1552
2023-10-28T13:36:47.054Z,1088
2023-10-28T13:46:54.038Z,184
2023-10-28T13:57:01.009Z,4776
2023-10-28T14:07:08.006Z,5112
2023-10-28T14:17:14.993Z,1672
2023-10-28T14:27:21.959Z,928
2023-10-28T14:37:28.900Z,2416
2023-10-28T14:47:35.867Z,2596
2023-10-28T14:57:42.906Z,1092
2023-10-28T15:07:49.961Z,964
2023-10-28T15:17:57.052Z,684
2023-10-28T15:28:04.188Z,256
2023-10-28T15:38:11.381Z,160
2023-10-28T15:48:18.521Z,144
2023-10-28T15:58:25.689Z,132
2023-10-28T16:08:32.873Z,36
2023-10-28T16:18:40.069Z,4
2023-10-28T16:28:47.270Z,0
2023-10-28T16:38:54.419Z,0
2023-10-28T16:49:01.578Z,0
2023-10-28T16:59:08.795Z,0
2023-10-28T17:09:15.953Z,0
2023-10-28T17:19:23.168Z,0
2023-10-28T17:29:30.394Z,0
2023-10-28T17:39:37.601Z,0
2023-10-28T17:49:44.851Z,0
2023-10-28T17:59:52.129Z,0
2023-10-28T18:09:59.687Z,0
2023-10-28T18:20:07.210Z,0
2023-10-28T18:30:14.718Z,0
2023-10-28T18:40:22.256Z,0
2023-10-28T18:50:29.861Z,0
2023-10-28T19:00:37.474Z,0
2023-10-28T19:10:45.081Z,0
2023-10-28T19:20:52.611Z,0
2023-10-28T19:31:00.193Z,0
2023-10-28T19:41:07.786Z,0
2023-10-28T19:51:15.378Z,0
2023-10-28T20:01:22.984Z,0
2023-10-28T20:11:29.808Z,0
2023-10-28T20:21:37.399Z,0
2023-10-28T20:31:44.900Z,0
2023-10-28T20:41:52.386Z,0
2023-10-28T20:51:59.790Z,0
2023-10-28T21:02:07.298Z,0
2023-10-28T21:12:14.779Z,0
2023-10-28T21:22:22.262Z,0
2023-10-28T21:32:29.704Z,0
2023-10-28T21:42:37.148Z,0
2023-10-28T21:52:44.694Z,0
2023-10-28T22:02:52.147Z,0
2023-10-28T22:12:59.627Z,0
2023-10-28T22:23:07.119Z,0
2023-10-28T22:33:14.613Z,0
2023-10-28T22:43:22.070Z,0
2023-10-28T22:53:29.512Z,0
2023-10-28T23:03:36.982Z,0
2023-10-28T23:13:44.455Z,0
2023-10-28T23:23:51.940Z,0
2023-10-28T23:33:59.386Z,0
2023-10-28T23:44:06.829Z,0
2023-10-28T23:54:14.272Z,0
